createdAt,value
2022-12-16T00:03:07.076Z,37.40
2022-12-16T00:08:14.123Z,37.80
2022-12-16T00:13:22.972Z,46.85
2022-12-16T00:18:29.441Z,52.67
2022-12-16T00:23:39.443Z,42.92
2022-12-16T00:28:47.919Z,47.28
2022-12-16T00:33:58.275Z,53.95
2022-12-16T00:39:06.480Z,47.17
2022-12-16T00:44:14.459Z,53.60
2022-12-16T00:49:20.784Z,48.00
2022-12-16T00:54:27.022Z,46.35
2022-12-16T00:59:34.859Z,40.60
2022-12-16T01:04:42.278Z,40.00
2022-12-16T01:09:48.993Z,39.63
2022-12-16T01:14:57.145Z,40.70
2022-12-16T01:20:03.857Z,38.05
2022-12-16T01:25:13.153Z,37.35
2022-12-16T01:30:21.020Z,35.65
2022-12-16T01:35:54.771Z,35.17
2022-12-16T01:40:55.209Z,35.92
2022-12-16T01:46:08.752Z,29.92
2022-12-16T01:51:22.999Z,27.88
2022-12-16T01:56:33.282Z,24.70
2022-12-16T02:01:41.104Z,27.58
2022-12-16T02:06:47.553Z,27.05
2022-12-16T02:12:25.661Z,29.90
2022-12-16T02:17:46.068Z,26.20
2022-12-16T02:23:10.341Z,25.58
2022-12-16T02:28:41.477Z,25.95
2022-12-16T02:34:05.550Z,25.52
2022-12-16T02:39:19.080Z,22.90
2022-12-16T02:44:36.073Z,22.23
2022-12-16T02:49:51.750Z,21.20
2022-12-16T02:55:03.205Z,21.15
2022-12-16T03:00:14.392Z,20.65
2022-12-16T03:05:28.282Z,19.67
2022-12-16T03:10:41.751Z,21.23
2022-12-16T03:15:50.125Z,19.98
2022-12-16T03:21:03.516Z,22.23
2022-12-16T03:26:18.247Z,22.48
2022-12-16T03:31:36.700Z,23.33
2022-12-16T03:36:50.039Z,22.85
2022-12-16T03:41:57.735Z,22.42
2022-12-16T03:47:04.059Z,20.48
2022-12-16T03:52:11.858Z,22.23
2022-12-16T03:57:18.298Z,20.67
2022-12-16T04:02:24.901Z,20.50
2022-12-16T04:07:33.143Z,21.48
2022-12-16T04:12:56.826Z,21.70
2022-12-16T04:18:20.485Z,21.90
2022-12-16T04:23:48.891Z,19.20
2022-12-16T04:28:55.366Z,19.50
2022-12-16T04:34:30.748Z,20.60
2022-12-16T04:39:55.817Z,19.33
2022-12-16T04:45:19.642Z,19.10
2022-12-16T04:50:46.961Z,18.95
2022-12-16T04:56:12.154Z,19.60
2022-12-16T05:01:38.161Z,20.75
2022-12-16T05:07:02.165Z,19.48
2022-12-16T05:12:27.422Z,19.33
2022-12-16T05:17:53.181Z,19.65
2022-12-16T05:23:17.180Z,17.80
2022-12-16T05:28:42.337Z,19.90
2022-12-16T05:34:06.672Z,18.27
2022-12-16T05:39:30.963Z,17.73
2022-12-16T05:44:56.690Z,16.63
2022-12-16T05:50:20.514Z,16.20
2022-12-16T05:55:44.443Z,18.63
2022-12-16T06:01:10.046Z,16.48
2022-12-16T06:06:33.998Z,17.30
2022-12-16T06:11:58.043Z,16.92
2022-12-16T06:17:23.213Z,19.60
2022-12-16T06:22:48.190Z,22.05
2022-12-16T06:28:12.844Z,23.77
2022-12-16T06:33:38.239Z,20.20
2022-12-16T06:39:02.268Z,17.55
2022-12-16T06:44:25.899Z,18.48
2022-12-16T06:49:51.531Z,19.50
2022-12-16T06:55:15.237Z,19.15
2022-12-16T07:00:39.160Z,22.23
2022-12-16T07:06:04.798Z,19.05
2022-12-16T07:11:29.029Z,21.98
2022-12-16T07:16:55.373Z,18.20
2022-12-16T07:22:20.943Z,18.45
2022-12-16T07:27:44.604Z,17.67
2022-12-16T07:33:10.001Z,22.40
2022-12-16T07:38:35.411Z,24.38
2022-12-16T07:43:59.577Z,21.27
2022-12-16T07:49:23.347Z,20.25
2022-12-16T07:54:48.533Z,19.70
2022-12-16T08:00:12.431Z,19.77
2022-12-16T08:05:36.736Z,24.05
2022-12-16T08:11:01.840Z,27.63
2022-12-16T08:16:28.430Z,25.50
2022-12-16T08:22:07.570Z,23.27
2022-12-16T08:27:41.385Z,24.17
2022-12-16T08:33:14.943Z,26.90
2022-12-16T08:38:42.874Z,27.10
2022-12-16T08:44:08.804Z,29.08
2022-12-16T08:49:32.465Z,21.77
2022-12-16T08:54:57.885Z,20.25
2022-12-16T09:00:24.868Z,20.67
2022-12-16T09:06:00.325Z,23.13
2022-12-16T09:11:24.540Z,21.92
2022-12-16T09:16:52.061Z,22.50
2022-12-16T09:22:16.646Z,22.97
2022-12-16T09:27:40.694Z,21.10
2022-12-16T09:33:06.359Z,22.17
2022-12-16T09:38:30.075Z,20.88
2022-12-16T09:44:13.298Z,23.75
2022-12-16T09:49:50.395Z,20.75
2022-12-16T09:55:14.282Z,20.92
2022-12-16T10:00:42.282Z,23.92
2022-12-16T10:06:16.388Z,21.58
2022-12-16T10:11:48.933Z,23.25
2022-12-16T10:17:23.017Z,22.27
2022-12-16T10:22:57.769Z,26.05
2022-12-16T10:28:41.032Z,22.50
2022-12-16T10:34:07.936Z,22.50
2022-12-16T10:39:46.695Z,19.25
2022-12-16T10:45:15.904Z,21.77
2022-12-16T10:50:40.806Z,21.63
2022-12-16T10:56:20.160Z,22.02
2022-12-16T11:01:46.302Z,20.33
2022-12-16T11:07:10.293Z,22.80
2022-12-16T11:12:43.313Z,21.08
2022-12-16T11:18:24.694Z,20.75
2022-12-16T11:24:00.420Z,20.30
2022-12-16T11:29:30.767Z,22.13
2022-12-16T11:35:09.389Z,22.27
2022-12-16T11:40:37.045Z,21.90
2022-12-16T11:46:03.417Z,25.27
2022-12-16T11:51:34.306Z,22.00
2022-12-16T11:57:02.249Z,21.90
2022-12-16T12:02:37.167Z,24.25
2022-12-16T12:08:11.167Z,23.50
2022-12-16T12:14:02.049Z,24.17
2022-12-16T12:19:34.119Z,24.33
2022-12-16T12:25:08.325Z,21.92
2022-12-16T12:30:36.071Z,23.92
2022-12-16T12:36:15.923Z,23.43
2022-12-16T12:41:46.549Z,23.58
2022-12-16T12:47:16.194Z,23.70
2022-12-16T12:53:12.457Z,23.60
2022-12-16T12:58:38.148Z,22.17
2022-12-16T13:04:07.517Z,22.92
2022-12-16T13:09:50.032Z,24.92
2022-12-16T13:15:21.678Z,23.08
2022-12-16T13:21:04.726Z,23.73
2022-12-16T13:26:30.957Z,26.90
2022-12-16T13:32:20.714Z,23.73
2022-12-16T13:37:47.069Z,22.58
2022-12-16T13:43:15.155Z,23.63
2022-12-16T13:48:55.036Z,24.73
2022-12-16T13:54:20.027Z,22.63
2022-12-16T13:59:50.057Z,25.75
2022-12-16T14:05:10.530Z,25.20
2022-12-16T14:10:45.394Z,23.90
2022-12-16T14:16:21.393Z,23.15
2022-12-16T14:21:53.196Z,22.83
2022-12-16T14:27:17.695Z,24.90
2022-12-16T14:32:48.741Z,23.40
2022-12-16T14:38:12.402Z,26.33
2022-12-16T14:43:39.530Z,22.02
2022-12-16T14:49:07.402Z,22.77
2022-12-16T14:54:55.603Z,24.20
2022-12-16T15:00:34.889Z,22.65
2022-12-16T15:06:01.173Z,24.02
2022-12-16T15:11:28.589Z,23.85
2022-12-16T15:16:57.213Z,23.60
2022-12-16T15:22:22.850Z,23.13
2022-12-16T15:27:54.022Z,23.05
2022-12-16T15:33:17.920Z,21.02
2022-12-16T15:38:48.919Z,22.95
2022-12-16T15:44:13.682Z,20.98
2022-12-16T15:49:40.950Z,21.65
2022-12-16T15:55:15.282Z,21.80
2022-12-16T16:00:44.116Z,21.00
2022-12-16T16:06:08.188Z,24.35
2022-12-16T16:11:33.598Z,22.10
2022-12-16T16:16:54.168Z,24.25
2022-12-16T16:22:18.493Z,20.38
2022-12-16T16:27:51.931Z,22.35
2022-12-16T16:33:27.351Z,23.02
2022-12-16T16:38:51.825Z,20.98
2022-12-16T16:44:19.972Z,21.58
2022-12-16T16:49:49.491Z,21.50
2022-12-16T16:55:09.760Z,21.30
2022-12-16T17:00:36.135Z,23.48
2022-12-16T17:06:00.062Z,21.40
2022-12-16T17:11:35.139Z,20.50
2022-12-16T17:17:00.374Z,21.30
2022-12-16T17:22:24.636Z,20.45
2022-12-16T17:27:48.714Z,21.05
2022-12-16T17:33:13.826Z,20.90
2022-12-16T17:38:37.783Z,21.70
2022-12-16T17:44:05.738Z,20.83
2022-12-16T17:49:31.764Z,20.83
2022-12-16T17:54:56.084Z,22.00
2022-12-16T18:00:35.624Z,21.38
2022-12-16T18:06:01.273Z,20.40
2022-12-16T18:11:26.095Z,22.90
2022-12-16T18:16:51.287Z,19.05
2022-12-16T18:22:17.339Z,19.38
2022-12-16T18:27:42.653Z,19.63
2022-12-16T18:33:07.964Z,20.13
2022-12-16T18:38:33.856Z,18.52
2022-12-16T18:43:58.746Z,19.63
2022-12-16T18:49:24.402Z,19.15
2022-12-16T18:54:51.372Z,17.83
2022-12-16T19:00:19.054Z,19.00
2022-12-16T19:05:46.032Z,18.60
2022-12-16T19:11:17.349Z,19.58
2022-12-16T19:16:44.421Z,19.08
2022-12-16T19:22:10.939Z,17.88
2022-12-16T19:27:38.002Z,19.52
2022-12-16T19:33:02.356Z,20.55
2022-12-16T19:38:30.318Z,20.55
2022-12-16T19:44:01.780Z,19.77
2022-12-16T19:49:30.693Z,20.60
2022-12-16T19:54:56.132Z,22.13
2022-12-16T20:00:25.683Z,19.42
2022-12-16T20:05:54.026Z,18.10
2022-12-16T20:11:27.001Z,18.45
2022-12-16T20:16:53.439Z,19.15
2022-12-16T20:22:19.572Z,17.63
2022-12-16T20:27:45.085Z,18.90
2022-12-16T20:33:18.025Z,18.92
2022-12-16T20:38:43.845Z,19.27
2022-12-16T20:44:12.830Z,19.67
2022-12-16T20:49:38.957Z,19.10
2022-12-16T20:55:03.326Z,18.65
2022-12-16T21:00:30.627Z,20.00
2022-12-16T21:05:56.466Z,17.67
2022-12-16T21:11:20.796Z,19.48
2022-12-16T21:16:45.596Z,19.60
2022-12-16T21:22:08.553Z,18.75
2022-12-16T21:27:34.700Z,17.38
2022-12-16T21:32:59.011Z,19.25
2022-12-16T21:38:28.007Z,18.85
2022-12-16T21:43:52.290Z,17.02
2022-12-16T21:49:29.214Z,18.60
2022-12-16T21:54:55.713Z,17.42
2022-12-16T22:00:19.766Z,19.73
2022-12-16T22:05:43.986Z,18.48
2022-12-16T22:11:09.787Z,19.50
2022-12-16T22:16:34.218Z,19.65
2022-12-16T22:21:58.018Z,19.02
2022-12-16T22:27:23.863Z,20.77
2022-12-16T22:32:48.227Z,19.70
2022-12-16T22:38:13.444Z,18.73
2022-12-16T22:43:45.693Z,17.90
2022-12-16T22:49:09.711Z,20.45
2022-12-16T22:54:33.603Z,19.75
2022-12-16T22:59:59.015Z,19.55
2022-12-16T23:11:14.695Z,20.63
2022-12-16T23:16:40.543Z,17.42
2022-12-16T23:22:06.368Z,18.38
2022-12-16T23:27:30.747Z,21.45
2022-12-16T23:32:30.682Z,21.05
2022-12-16T23:32:56.652Z,20.83
2022-12-16T23:38:22.607Z,22.77
2022-12-16T23:43:47.233Z,19.95
2022-12-16T23:49:13.569Z,19.75
2022-12-16T23:54:38.822Z,19.77
